Time;durP1;ratioP1;P1;durP2;ratioP2;P2;SDS_P1;SDS_P2;PMS_P1;PMS_P2;Temp;Humidity;BMP_temperature;BMP_pressure;BME280_temperature;BME280_humidity;BME280_pressure;Samples;Min_cycle;Max_cycle;Signal;HPM_P1;HPM_P2
2022/12/16 00:01:07;;;;;;;29.73;18.67;;;;;;;-1.43;72.77;98752.66;1087356;54;20034;-80
2022/12/16 00:02:11;;;;;;;28.45;16.95;;;;;;;-1.46;72.63;98747.59;1088198;31;20671;-79
2022/12/16 00:03:12;;;;;;;27.75;17.35;;;;;;;-1.46;72.65;98754.59;1087367;54;20057;-80
2022/12/16 00:04:16;;;;;;;28.50;17.50;;;;;;;-1.43;72.78;98751.78;1087454;54;20037;-79
2022/12/16 00:05:19;;;;;;;30.50;18.73;;;;;;;-1.36;72.41;98757.47;1087273;54;20046;-80
2022/12/16 00:06:25;;;;;;;28.50;18.67;;;;;;;-1.33;72.45;98757.28;1087372;54;20155;-79
2022/12/16 00:07:27;;;;;;;29.08;17.95;;;;;;;-1.31;72.18;98752.75;1087290;54;20057;-80
2022/12/16 00:08:33;;;;;;;26.17;16.88;;;;;;;-1.33;72.36;98752.88;1087361;54;20584;-80
2022/12/16 00:09:34;;;;;;;26.42;17.00;;;;;;;-1.32;72.02;98753.72;1087551;54;20057;-79
2022/12/16 00:11:57;;;;;;;26.25;16.35;;;;;;;-1.31;72.11;98753.59;1087414;54;20041;-80
2022/12/16 00:12:59;;;;;;;25.95;16.25;;;;;;;-1.23;71.96;98758.34;1087696;54;20061;-81
2022/12/16 00:14:03;;;;;;;26.45;16.15;;;;;;;-1.20;71.47;98752.88;1087729;54;20076;-81
2022/12/16 00:15:05;;;;;;;26.10;16.17;;;;;;;-1.28;71.38;98750.78;1087692;54;20057;-81
2022/12/16 00:16:12;;;;;;;26.33;16.00;;;;;;;-1.21;71.36;98745.97;1087671;54;20034;-81
2022/12/16 00:17:14;;;;;;;31.52;18.80;;;;;;;-1.24;70.81;98754.06;1090024;39;20645;-81
2022/12/16 00:18:18;;;;;;;25.63;16.70;;;;;;;-1.33;71.15;98765.97;1089252;46;20041;-81
2022/12/16 00:19:20;;;;;;;26.38;16.83;;;;;;;-1.26;71.25;98758.56;1087713;54;20042;-80
2022/12/16 00:20:24;;;;;;;25.17;15.77;;;;;;;-1.28;70.98;98760.44;1087646;54;20057;-79
2022/12/16 00:21:28;;;;;;;26.20;16.20;;;;;;;-1.26;71.13;98753.31;1087681;54;20046;-80
2022/12/16 00:22:32;;;;;;;25.33;17.25;;;;;;;-1.26;71.16;98753.31;1089985;46;20034;-80
2022/12/16 00:23:34;;;;;;;25.05;16.23;;;;;;;-1.26;71.15;98754.13;1093216;39;21111;-79
2022/12/16 00:24:39;;;;;;;24.90;16.05;;;;;;;-1.22;70.83;98760.00;1086826;54;20031;-80
2022/12/16 00:25:42;;;;;;;28.88;16.67;;;;;;;-1.36;71.19;98762.72;1086825;54;20061;-80
2022/12/16 00:26:46;;;;;;;27.55;16.73;;;;;;;-1.36;71.31;98763.53;1087077;54;20034;-80
2022/12/16 00:27:50;;;;;;;27.35;17.98;;;;;;;-1.34;71.38;98766.09;1087417;54;20046;-80
2022/12/16 00:28:54;;;;;;;24.38;15.55;;;;;;;-1.31;71.51;98768.50;1087317;54;20692;-81
2022/12/16 00:29:55;;;;;;;26.63;16.20;;;;;;;-1.23;71.52;98768.00;1087279;54;20038;-81
2022/12/16 00:31:00;;;;;;;26.88;17.58;;;;;;;-1.27;71.20;98760.31;1087211;39;20445;-82
2022/12/16 00:32:01;;;;;;;28.23;16.90;;;;;;;-1.32;71.42;98766.84;1087296;54;20035;-81
2022/12/16 00:33:05;;;;;;;26.17;15.25;;;;;;;-1.20;71.54;98773.03;1087362;54;20042;-81
2022/12/16 00:34:07;;;;;;;24.58;15.32;;;;;;;-1.27;71.33;98773.44;1087302;54;20946;-81
2022/12/16 00:35:11;;;;;;;25.85;16.40;;;;;;;-1.24;71.31;98776.78;1087289;54;20707;-81
2022/12/16 00:36:13;;;;;;;25.73;17.00;;;;;;;-1.17;71.33;98773.69;1087359;54;20050;-81
2022/12/16 00:37:17;;;;;;;27.48;16.30;;;;;;;-1.27;70.91;98783.09;1087560;46;20044;-83
2022/12/16 00:38:19;;;;;;;26.42;16.45;;;;;;;-1.29;71.13;98790.22;1087084;54;20065;-81
2022/12/16 00:39:23;;;;;;;26.33;16.73;;;;;;;-1.32;71.32;98791.25;1087316;54;20043;-80
2022/12/16 00:40:25;;;;;;;25.60;16.65;;;;;;;-1.25;71.35;98789.09;1087233;54;20018;-81
2022/12/16 00:41:30;;;;;;;25.92;15.50;;;;;;;-1.37;71.48;98785.47;1087102;54;20034;-81
2022/12/16 00:42:31;;;;;;;26.45;16.52;;;;;;;-1.35;71.78;98785.38;1087201;54;20038;-80
2022/12/16 00:43:38;;;;;;;27.63;17.05;;;;;;;-1.41;71.60;98792.69;1086614;54;20049;-81
2022/12/16 00:44:40;;;;;;;26.45;16.98;;;;;;;-1.37;72.17;98787.25;1087025;46;20069;-80
2022/12/16 00:45:45;;;;;;;27.52;18.13;;;;;;;-1.34;72.18;98787.88;1087002;54;20030;-80
2022/12/16 00:46:46;;;;;;;26.35;17.35;;;;;;;-1.39;72.12;98789.13;1086906;54;20102;-80
2022/12/16 00:47:52;;;;;;;26.60;17.42;;;;;;;-1.45;72.22;98785.13;1087300;54;20042;-80
2022/12/16 00:48:53;;;;;;;27.67;17.50;;;;;;;-1.43;72.10;98793.72;1087186;54;20027;-80
2022/12/16 00:49:57;;;;;;;32.95;18.25;;;;;;;-1.49;72.41;98789.72;1087216;54;20022;-80
2022/12/16 00:50:59;;;;;;;27.15;15.90;;;;;;;-1.51;71.75;98794.22;1087184;54;20042;-79
2022/12/16 00:52:03;;;;;;;28.10;16.55;;;;;;;-1.48;71.79;98799.28;1087334;54;20030;-80
2022/12/16 00:53:05;;;;;;;28.42;17.58;;;;;;;-1.44;72.01;98792.91;1086901;54;20030;-81
2022/12/16 00:54:09;;;;;;;24.35;15.32;;;;;;;-1.36;72.24;98788.94;1087688;39;20278;-80
2022/12/16 00:55:11;;;;;;;25.85;16.25;;;;;;;-1.38;72.08;98788.19;1087134;54;20030;-79
2022/12/16 00:56:26;;;;;;;24.10;15.23;;;;;;;-1.39;71.50;98799.63;1088495;39;20537;-80
2022/12/16 00:57:34;;;;;;;27.05;16.15;;;;;;;-1.45;72.04;98796.47;1086750;54;20030;-80
2022/12/16 00:58:42;;;;;;;26.05;15.75;;;;;;;-1.38;71.99;98803.91;1086805;54;20042;-81
2022/12/16 00:59:44;;;;;;;28.45;17.05;;;;;;;-1.39;71.88;98799.63;1086868;54;20073;-80
2022/12/16 01:00:48;;;;;;;26.25;15.45;;;;;;;-1.36;71.91;98809.91;1087149;54;20023;-80
2022/12/16 01:01:50;;;;;;;24.95;14.90;;;;;;;-1.38;71.73;98806.53;1088217;46;20034;-81
2022/12/16 01:02:54;;;;;;;26.20;16.10;;;;;;;-1.39;71.78;98810.97;1087414;54;20026;-80
2022/12/16 01:03:56;;;;;;;28.33;17.23;;;;;;;-1.43;71.79;98817.31;1087376;54;20054;-81
2022/12/16 01:05:00;;;;;;;26.17;16.23;;;;;;;-1.41;72.02;98811.03;1087375;54;20030;-79
2022/12/16 01:06:10;;;;;;;24.80;16.63;;;;;;;-1.42;71.91;98811.16;1087445;54;20057;-81
2022/12/16 01:07:12;;;;;;;26.23;15.65;;;;;;;-1.36;71.80;98815.16;1087471;54;20039;-80
2022/12/16 01:08:16;;;;;;;24.88;14.48;;;;;;;-1.23;71.71;98810.81;1087480;54;20827;-79
2022/12/16 01:09:17;;;;;;;22.25;14.10;;;;;;;-1.13;71.42;98821.53;1087378;54;20057;-80
2022/12/16 01:10:22;;;;;;;24.48;16.20;;;;;;;-1.24;70.72;98809.13;1087436;54;20037;-80
2022/12/16 01:11:23;;;;;;;25.88;15.90;;;;;;;-1.18;70.58;98813.13;1087538;54;20709;-81
2022/12/16 01:12:28;;;;;;;26.05;16.08;;;;;;;-1.30;70.74;98814.75;1087473;54;20027;-80
2022/12/16 01:13:29;;;;;;;27.42;15.68;;;;;;;-1.30;71.16;98809.50;1087482;54;20034;-80
2022/12/16 01:14:36;;;;;;;23.33;16.17;;;;;;;-1.25;71.29;98810.06;1087376;54;20049;-80
2022/12/16 01:15:38;;;;;;;26.38;16.67;;;;;;;-1.19;71.11;98814.06;1087445;54;20708;-80
2022/12/16 01:16:42;;;;;;;27.58;15.82;;;;;;;-1.19;70.71;98814.06;1087761;46;20045;-81
2022/12/16 01:17:44;;;;;;;23.85;15.35;;;;;;;-1.22;70.99;98812.47;1087469;54;20042;-81
2022/12/16 01:18:48;;;;;;;25.50;14.93;;;;;;;-1.12;71.04;98824.03;1087250;54;20039;-81
2022/12/16 01:19:49;;;;;;;23.27;14.57;;;;;;;-1.07;70.73;98828.16;1087391;54;20631;-81
2022/12/16 01:20:54;;;;;;;22.77;14.10;;;;;;;-1.02;70.79;98834.78;1087465;54;20021;-80
2022/12/16 01:21:55;;;;;;;24.23;14.13;;;;;;;-0.92;70.38;98831.56;1087453;54;20058;-79
2022/12/16 01:22:59;;;;;;;22.58;14.20;;;;;;;-0.89;70.20;98832.19;1088384;39;20273;-80
2022/12/16 01:24:01;;;;;;;22.25;13.63;;;;;;;-0.89;69.83;98832.19;1088348;39;20249;-79
2022/12/16 01:25:05;;;;;;;22.08;13.23;;;;;;;-0.85;69.90;98823.16;1088817;46;20117;-80
2022/12/16 01:26:08;;;;;;;26.10;15.57;;;;;;;-0.90;69.73;98819.19;1087425;54;20026;-81
2022/12/16 01:27:13;;;;;;;23.27;14.35;;;;;;;-0.92;69.90;98829.75;1087523;47;20041;-80
2022/12/16 01:28:14;;;;;;;25.15;14.85;;;;;;;-0.94;69.65;98829.00;1087343;54;20030;-80
2022/12/16 01:29:19;;;;;;;22.88;14.18;;;;;;;-0.89;69.89;98824.31;1089341;39;20728;-81
2022/12/16 01:30:23;;;;;;;20.40;13.18;;;;;;;-0.81;69.90;98835.16;1087329;54;20061;-80
2022/12/16 01:31:27;;;;;;;22.90;13.43;;;;;;;-0.72;69.60;98830.22;1088010;46;20034;-79
2022/12/16 01:32:29;;;;;;;21.65;13.45;;;;;;;-0.74;69.54;98832.97;1087421;54;20069;-81
2022/12/16 01:33:34;;;;;;;22.30;13.50;;;;;;;-0.70;69.15;98823.09;1087428;54;20031;-80
2022/12/16 01:34:35;;;;;;;18.67;12.32;;;;;;;-0.65;69.10;98832.34;1087352;54;20034;-79
2022/12/16 01:35:39;;;;;;;20.38;12.57;;;;;;;-0.59;69.24;98820.59;1087390;54;20027;-80
2022/12/16 01:36:43;;;;;;;20.27;12.70;;;;;;;-0.53;69.10;98828.03;1087478;54;20058;-79
2022/12/16 01:37:52;;;;;;;21.20;13.55;;;;;;;-0.59;68.51;98830.22;1088062;47;20023;-79
2022/12/16 01:38:56;;;;;;;21.90;13.98;;;;;;;-0.66;68.24;98824.56;1092102;47;20057;-80
2022/12/16 01:39:57;;;;;;;21.52;13.23;;;;;;;-0.64;68.57;98827.91;1087842;47;20027;-81
2022/12/16 01:41:02;;;;;;;22.92;13.40;;;;;;;-0.60;68.68;98824.16;1089072;47;20049;-78
2022/12/16 01:42:04;;;;;;;20.98;13.43;;;;;;;-0.58;68.45;98821.41;1087515;54;20057;-81
2022/12/16 01:43:13;;;;;;;18.42;12.40;;;;;;;-0.58;67.92;98819.66;1087470;54;20037;-80
2022/12/16 01:44:17;;;;;;;20.75;12.88;;;;;;;-0.63;68.21;98819.97;1087346;54;20034;-80
2022/12/16 01:45:37;;;;;;;21.33;13.73;;;;;;;-0.68;67.80;98822.03;1087184;54;20035;-79
2022/12/16 01:46:40;;;;;;;20.55;12.68;;;;;;;-0.64;68.38;98825.28;1086936;54;20678;-79
2022/12/16 01:47:45;;;;;;;21.90;13.10;;;;;;;-0.62;68.13;98818.16;1087134;54;20682;-80
2022/12/16 01:48:53;;;;;;;19.13;12.27;;;;;;;-0.55;68.34;98824.66;1088512;31;20634;-80
2022/12/16 01:49:58;;;;;;;19.58;12.65;;;;;;;-0.55;67.95;98822.03;1087134;54;20042;-81
2022/12/16 01:51:07;;;;;;;20.77;13.10;;;;;;;-0.51;67.77;98815.66;1087193;54;20030;-79
2022/12/16 01:52:19;;;;;;;19.92;13.18;;;;;;;-0.50;68.03;98819.09;1087147;54;20030;-80
2022/12/16 01:53:23;;;;;;;20.33;12.52;;;;;;;-0.45;68.09;98821.41;1087787;39;20182;-80
2022/12/16 01:54:30;;;;;;;19.27;12.35;;;;;;;-0.47;68.08;98818.91;1087218;54;20757;-79
2022/12/16 01:55:37;;;;;;;20.08;12.70;;;;;;;-0.45;67.85;98821.41;1087079;54;20039;-79
2022/12/16 01:56:45;;;;;;;21.88;12.77;;;;;;;-0.48;68.10;98823.34;1087131;54;20065;-79
2022/12/16 01:57:50;;;;;;;21.50;13.82;;;;;;;-0.40;68.19;98814.91;1087242;54;20068;-79
2022/12/16 01:58:56;;;;;;;23.85;14.13;;;;;;;-0.41;68.19;98815.84;1087362;54;20035;-79
2022/12/16 01:59:58;;;;;;;23.27;13.43;;;;;;;-0.45;68.35;98821.41;1087176;54;20042;-79
2022/12/16 02:01:04;;;;;;;23.02;14.75;;;;;;;-0.47;68.71;98817.09;1087133;54;20043;-80
2022/12/16 02:02:07;;;;;;;24.58;14.35;;;;;;;-0.51;68.86;98823.53;1087034;54;20857;-81
2022/12/16 02:03:11;;;;;;;21.77;14.30;;;;;;;-0.49;69.03;98826.91;1087121;54;20026;-80
2022/12/16 02:04:13;;;;;;;21.90;14.00;;;;;;;-0.49;68.86;98823.41;1087166;54;20030;-80
2022/12/16 02:05:25;;;;;;;20.50;14.05;;;;;;;-0.41;68.89;98815.03;1087461;39;20484;-80
2022/12/16 02:06:27;;;;;;;21.67;13.35;;;;;;;-0.45;68.80;98827.53;1087329;54;20037;-79
2022/12/16 02:07:31;;;;;;;21.35;12.50;;;;;;;-0.42;69.00;98821.22;1087372;54;20046;-79
2022/12/16 02:08:33;;;;;;;21.35;12.77;;;;;;;-0.47;69.03;98817.09;1087305;54;20037;-79
2022/12/16 02:09:37;;;;;;;22.35;14.20;;;;;;;-0.44;68.96;98817.84;1087354;54;20061;-79
2022/12/16 02:10:51;;;;;;;21.85;13.80;;;;;;;-0.38;69.12;98814.81;1087352;54;20031;-78
2022/12/16 02:12:13;;;;;;;17.63;11.57;;;;;;;-0.34;68.90;98819.75;1087342;54;20106;-79
2022/12/16 02:13:25;;;;;;;18.63;13.25;;;;;;;-0.32;69.09;98822.28;1087333;54;20035;-78
2022/12/16 02:14:54;;;;;;;20.27;12.32;;;;;;;-0.34;69.03;98821.53;1087314;54;20027;-78
2022/12/16 02:16:04;;;;;;;20.13;12.70;;;;;;;-0.34;69.17;98822.38;1087306;54;20749;-79
2022/12/16 02:17:15;;;;;;;20.30;12.18;;;;;;;-0.34;68.84;98824.16;1087303;54;20037;-80
2022/12/16 02:18:28;;;;;;;22.40;13.73;;;;;;;-0.37;68.90;98822.59;1091812;39;20681;-79
2022/12/16 02:19:57;;;;;;;23.25;13.60;;;;;;;-0.49;68.71;98824.28;1087308;54;20038;-78
2022/12/16 02:21:33;;;;;;;22.88;14.65;;;;;;;-0.54;68.97;98828.97;1087234;54;20038;-79
2022/12/16 02:22:50;;;;;;;22.60;13.88;;;;;;;-0.61;69.02;98832.16;1087256;54;20042;-79
2022/12/16 02:24:28;;;;;;;22.65;14.27;;;;;;;-0.79;68.44;98827.16;1087343;54;20066;-79
2022/12/16 02:25:45;;;;;;;22.13;12.93;;;;;;;-0.87;68.65;98832.94;1087240;54;20034;-79
2022/12/16 02:27:18;;;;;;;21.98;12.73;;;;;;;-0.81;68.69;98836.94;1087347;54;20038;-80
2022/12/16 02:28:34;;;;;;;21.08;12.63;;;;;;;-0.70;68.72;98839.66;1087330;54;20090;-78
2022/12/16 02:30:00;;;;;;;20.27;12.75;;;;;;;-0.69;68.55;98835.28;1088358;47;20065;-79
2022/12/16 02:31:21;;;;;;;20.05;12.30;;;;;;;-0.63;68.61;98837.47;1087540;54;20039;-79
2022/12/16 02:32:32;;;;;;;22.45;13.43;;;;;;;-0.67;69.22;98841.28;1087698;54;20057;-80
2022/12/16 02:33:48;;;;;;;19.95;12.63;;;;;;;-0.60;68.99;98839.91;1087685;54;20030;-79
2022/12/16 02:35:00;;;;;;;20.17;11.98;;;;;;;-0.53;69.07;98848.22;1089669;46;20689;-79
2022/12/16 02:36:11;;;;;;;18.48;11.95;;;;;;;-0.49;69.16;98837.41;1087448;54;20061;-79
2022/12/16 02:37:25;;;;;;;18.98;12.50;;;;;;;-0.50;69.26;98846.22;1087686;54;20065;-79
2022/12/16 02:38:37;;;;;;;20.05;13.27;;;;;;;-0.49;69.37;98839.16;1087577;54;21163;-80
2022/12/16 02:39:45;;;;;;;21.73;13.65;;;;;;;-0.53;69.42;98841.16;1087584;54;20046;-79
2022/12/16 02:40:51;;;;;;;21.40;12.95;;;;;;;-0.45;69.04;98845.91;1087616;54;20030;-79
2022/12/16 02:42:03;;;;;;;19.42;12.32;;;;;;;-0.43;69.17;98844.03;1087359;54;20045;-79
2022/12/16 02:43:11;;;;;;;20.40;12.77;;;;;;;-0.41;68.74;98843.91;1087348;54;20018;-79
2022/12/16 02:44:17;;;;;;;20.75;12.40;;;;;;;-0.40;68.56;98838.53;1087294;54;20094;-79
2022/12/16 02:45:22;;;;;;;17.80;11.30;;;;;;;-0.38;68.65;98841.09;1087275;54;20065;-79
2022/12/16 02:46:31;;;;;;;21.52;11.98;;;;;;;-0.40;68.60;98840.34;1087397;54;20026;-78
2022/12/16 02:47:33;;;;;;;17.38;11.05;;;;;;;-0.36;68.42;98845.28;1087453;54;20026;-79
2022/12/16 02:48:37;;;;;;;16.92;10.75;;;;;;;-0.33;68.45;98841.59;1087509;54;20018;-79
2022/12/16 02:49:47;;;;;;;19.33;11.48;;;;;;;-0.29;68.23;98848.34;1087324;54;20045;-79
2022/12/16 02:50:53;;;;;;;17.90;11.20;;;;;;;-0.30;68.06;98851.03;1087379;54;20038;-79
2022/12/16 02:53:03;;;;;;;17.15;10.85;;;;;;;-0.26;67.97;98845.47;1085666;54;20534;-79
2022/12/16 02:54:07;;;;;;;16.35;10.48;;;;;;;-0.22;68.01;98844.34;1085940;54;20721;-80
2022/12/16 02:55:12;;;;;;;18.48;10.70;;;;;;;-0.20;67.88;98847.69;1085790;54;20102;-79
2022/12/16 02:56:27;;;;;;;16.35;10.20;;;;;;;-0.22;67.84;98849.59;1085911;54;20042;-78
2022/12/16 02:57:52;;;;;;;16.00;10.43;;;;;;;-0.20;67.40;98847.69;1085838;54;20042;-79
2022/12/16 02:59:29;;;;;;;;;;;;;;;;;;;;;
2022/12/16 03:07:02;;;;;;;17.88;11.00;;;;;;;-0.28;67.32;98862.28;1084625;54;20077;-80
2022/12/16 03:08:24;;;;;;;19.70;11.00;;;;;;;-0.26;67.41;98863.88;1084558;54;20050;-80
2022/12/16 03:09:31;;;;;;;16.88;10.52;;;;;;;-0.22;67.29;98862.72;1084611;54;20050;-79
2022/12/16 03:10:40;;;;;;;19.77;11.15;;;;;;;-0.20;67.44;98867.88;1085100;54;20063;-80
2022/12/16 03:11:46;;;;;;;19.17;11.40;;;;;;;-0.21;67.62;98866.19;1084834;54;21115;-79
2022/12/16 03:12:48;;;;;;;15.45;10.40;;;;;;;-0.17;67.42;98865.03;1084976;54;20080;-80
2022/12/16 03:13:54;;;;;;;18.23;11.30;;;;;;;-0.14;67.46;98866.59;1084969;54;20034;-80
2022/12/16 03:14:56;;;;;;;18.02;12.10;;;;;;;-0.19;67.67;98866.91;1084999;47;20107;-79
2022/12/16 03:16:01;;;;;;;16.80;11.30;;;;;;;-0.14;67.57;98870.06;1084809;54;20045;-79
2022/12/16 03:17:04;;;;;;;17.15;11.05;;;;;;;-0.11;67.67;98866.41;1084843;54;20050;-79
2022/12/16 03:18:14;;;;;;;15.98;9.70;;;;;;;-0.08;67.56;98872.28;1084900;54;20053;-79
2022/12/16 03:19:15;;;;;;;16.48;11.13;;;;;;;-0.08;67.47;98867.03;1085097;39;20647;-79
2022/12/16 03:20:25;;;;;;;18.83;11.48;;;;;;;-0.09;67.44;98867.13;1084534;54;21049;-80
2022/12/16 03:21:31;;;;;;;19.38;12.10;;;;;;;-0.12;67.32;98869.97;1084631;54;20054;-79
2022/12/16 03:22:38;;;;;;;16.85;11.23;;;;;;;-0.08;67.36;98871.44;1084981;54;20038;-78
2022/12/16 03:23:49;;;;;;;18.45;11.73;;;;;;;-0.10;67.19;98868.09;1085541;31;20672;-80
2022/12/16 03:24:57;;;;;;;20.55;11.95;;;;;;;-0.09;67.13;98861.84;1085130;54;20042;-79
2022/12/16 03:26:09;;;;;;;18.80;12.38;;;;;;;-0.16;66.94;98864.09;1084456;54;20085;-79
2022/12/16 03:27:17;;;;;;;19.27;12.02;;;;;;;-0.13;67.01;98868.28;1084644;47;20076;-79
2022/12/16 03:28:35;;;;;;;18.90;12.15;;;;;;;-0.16;67.10;98872.81;1085456;39;20464;-80
2022/12/16 03:29:41;;;;;;;19.48;11.52;;;;;;;-0.09;67.11;98869.75;1084799;54;20059;-79
2022/12/16 03:30:52;;;;;;;16.48;10.63;;;;;;;-0.09;67.00;98869.75;1084661;54;20165;-80
2022/12/16 03:32:19;;;;;;;18.33;11.88;;;;;;;-0.12;67.30;98868.16;1084856;54;20080;-79
2022/12/16 03:33:30;;;;;;;18.67;12.43;;;;;;;-0.14;67.13;98877.13;1084509;54;20058;-79
2022/12/16 03:34:35;;;;;;;18.52;11.45;;;;;;;-0.13;67.53;98877.00;1085304;54;20042;-78
2022/12/16 03:35:44;;;;;;;18.27;11.40;;;;;;;-0.09;67.53;98875.84;1085028;54;20075;-79
2022/12/16 03:36:55;;;;;;;17.45;11.13;;;;;;;-0.09;67.26;98872.38;1085257;54;20046;-79
2022/12/16 03:37:59;;;;;;;16.65;10.13;;;;;;;-0.07;67.44;98876.59;1085286;54;20054;-79
2022/12/16 03:39:04;;;;;;;18.67;11.68;;;;;;;-0.09;67.36;98880.25;1085260;54;20038;-79
2022/12/16 03:40:08;;;;;;;18.45;11.68;;;;;;;-0.07;67.54;98881.00;1086015;39;20558;-79
2022/12/16 03:41:15;;;;;;;20.08;11.75;;;;;;;-0.08;67.53;98876.69;1085196;54;20038;-79
2022/12/16 03:42:17;;;;;;;19.17;11.23;;;;;;;-0.06;67.50;98887.94;1085480;39;20514;-79
2022/12/16 03:43:21;;;;;;;16.83;11.57;;;;;;;-0.08;67.58;98876.69;1085061;54;20039;-79
2022/12/16 03:44:24;;;;;;;18.73;11.90;;;;;;;-0.12;67.65;98876.06;1085178;54;20073;-79
2022/12/16 03:45:33;;;;;;;19.75;12.90;;;;;;;-0.16;67.58;98883.31;1084673;54;20890;-80
2022/12/16 03:46:37;;;;;;;16.65;11.20;;;;;;;-0.12;67.77;98881.31;1084347;47;21013;-79
2022/12/16 03:47:39;;;;;;;15.95;10.85;;;;;;;-0.10;67.61;98886.47;1084640;54;20042;-79
2022/12/16 03:48:51;;;;;;;16.85;10.48;;;;;;;-0.11;67.66;98890.88;1084483;46;20130;-79
2022/12/16 03:49:53;;;;;;;16.65;10.85;;;;;;;-0.11;67.70;98893.50;1084610;54;20054;-79
2022/12/16 03:50:57;;;;;;;19.05;11.60;;;;;;;-0.14;67.47;98887.63;1084474;54;20034;-79
2022/12/16 03:52:01;;;;;;;19.35;11.82;;;;;;;-0.11;67.81;98892.69;1084813;54;20106;-79
2022/12/16 03:53:04;;;;;;;18.52;11.25;;;;;;;-0.13;67.70;98890.13;1085272;54;20046;-79
2022/12/16 03:54:08;;;;;;;17.05;10.00;;;;;;;-0.11;67.47;98893.50;1084965;54;20069;-79
2022/12/16 03:55:09;;;;;;;17.25;10.95;;;;;;;-0.07;67.72;98891.50;1086112;31;20591;-79
2022/12/16 03:56:15;;;;;;;16.40;10.20;;;;;;;-0.05;67.68;98887.00;1085001;54;20042;-79
2022/12/16 03:57:16;;;;;;;15.25;10.05;;;;;;;-0.08;67.55;98881.94;1085198;54;20038;-79
2022/12/16 03:58:20;;;;;;;17.73;11.27;;;;;;;-0.06;67.72;98890.56;1085090;54;20829;-80
2022/12/16 03:59:22;;;;;;;16.95;10.75;;;;;;;-0.05;67.40;98894.88;1085354;39;21010;-79
2022/12/16 04:00:27;;;;;;;16.00;9.82;;;;;;;-0.01;67.62;98893.72;1085026;54;20045;-79
2022/12/16 04:01:29;;;;;;;16.52;9.93;;;;;;;0.01;67.35;98891.81;1085139;47;20560;-79
2022/12/16 04:02:33;;;;;;;16.40;9.85;;;;;;;0.05;67.62;98892.47;1085384;54;20044;-79
2022/12/16 04:03:35;;;;;;;14.85;9.43;;;;;;;0.05;67.46;98885.41;1084898;54;20065;-79
2022/12/16 04:04:42;;;;;;;15.73;9.68;;;;;;;0.04;67.30;98896.03;1085223;54;20042;-78
2022/12/16 04:05:44;;;;;;;15.82;10.32;;;;;;;0.02;67.46;98904.00;1084945;54;20054;-79
2022/12/16 04:07:19;;;;;;;14.10;9.05;;;;;;;0.02;67.48;98895.28;1085033;47;20035;-79
2022/12/16 04:08:10;;;;;;;15.90;9.25;;;;;;;0.07;67.41;98901.91;1084885;54;20092;-79
2022/12/16 04:09:14;;;;;;;14.57;9.32;;;;;;;0.06;67.32;98900.22;1085065;54;20034;-79
2022/12/16 04:24:17;;;;;;;14.50;9.50;;;;;;;0.04;67.48;98899.50;1084997;54;20069;-79
2022/12/16 04:25:09;;;;;;;17.63;11.48;;;;;;;-0.43;69.02;98919.31;1084914;54;20034;-79
2022/12/16 04:26:11;;;;;;;19.60;12.20;;;;;;;-0.41;68.95;98925.31;1084522;54;20054;-79
2022/12/16 04:27:28;;;;;;;18.67;11.25;;;;;;;-0.42;68.89;98928.88;1085075;54;20783;-79
2022/12/16 04:28:29;;;;;;;19.52;12.50;;;;;;;-0.41;68.80;98923.53;1084818;54;20714;-79
2022/12/16 04:30:17;;;;;;;18.08;12.52;;;;;;;-0.43;68.93;98924.56;1084870;54;20659;-79
2022/12/16 04:30:56;;;;;;;18.20;12.15;;;;;;;-0.43;68.94;98925.44;1084548;54;20034;-79
2022/12/16 04:32:01;;;;;;;17.77;11.63;;;;;;;-0.42;69.13;98921.84;1085063;54;20584;-77
2022/12/16 04:34:24;;;;;;;20.45;11.52;;;;;;;-0.36;68.92;98934.56;1085093;54;20057;-78
